createdAt,value
2022-10-11T00:00:15.196Z,95.18
2022-10-11T00:00:46.031Z,95.28
2022-10-11T00:01:16.927Z,95.18
2022-10-11T00:01:47.826Z,95.28
2022-10-11T00:02:18.717Z,95.08
2022-10-11T00:02:49.509Z,94.87
2022-10-11T00:03:20.317Z,94.77
2022-10-11T00:03:51.100Z,95.08
2022-10-11T00:04:21.949Z,95.18
2022-10-11T00:04:52.773Z,95.18
2022-10-11T00:05:23.584Z,95.08
2022-10-11T00:05:54.390Z,95.08
2022-10-11T00:06:25.182Z,95.18
2022-10-11T00:06:55.970Z,95.18
2022-10-11T00:07:26.789Z,95.08
2022-10-11T00:07:57.583Z,95.39
2022-10-11T00:08:28.369Z,95.28
2022-10-11T00:08:59.166Z,95.18
2022-10-11T00:09:29.978Z,94.98
2022-10-11T00:10:00.840Z,94.77
2022-10-11T00:10:31.645Z,94.98
2022-10-11T00:11:02.458Z,94.98
2022-10-11T00:11:33.282Z,94.56
2022-10-11T00:12:04.071Z,94.77
2022-10-11T00:12:34.937Z,94.87
2022-10-11T00:13:05.709Z,94.87
2022-10-11T00:13:36.484Z,94.98
2022-10-11T00:14:07.290Z,94.77
2022-10-11T00:14:38.137Z,94.77
2022-10-11T00:15:08.919Z,95.18
2022-10-11T00:15:39.750Z,94.98
2022-10-11T00:16:10.532Z,95.08
2022-10-11T00:16:41.302Z,95.28
2022-10-11T00:17:12.139Z,95.39
2022-10-11T00:17:42.957Z,95.08
2022-10-11T00:18:13.780Z,95.28
2022-10-11T00:18:44.609Z,95.39
2022-10-11T00:19:15.409Z,95.08
2022-10-11T00:19:46.264Z,94.87
2022-10-11T00:20:17.034Z,95.18
2022-10-11T00:20:47.900Z,95.18
2022-10-11T00:21:18.688Z,94.98
2022-10-11T00:21:49.505Z,95.18
2022-10-11T00:22:20.292Z,95.39
2022-10-11T00:22:51.105Z,95.39
2022-10-11T00:23:21.951Z,95.49
2022-10-11T00:23:52.739Z,95.59
2022-10-11T00:24:23.513Z,95.39
2022-10-11T00:24:54.335Z,95.28
2022-10-11T00:25:25.148Z,95.39
2022-10-11T00:25:55.954Z,95.49
2022-10-11T00:26:26.750Z,95.39
2022-10-11T00:26:57.587Z,95.49
2022-10-11T00:27:28.406Z,95.28
2022-10-11T00:27:59.242Z,95.18
2022-10-11T00:28:30.090Z,95.18
2022-10-11T00:29:00.955Z,95.08
2022-10-11T00:29:31.777Z,94.87
2022-10-11T00:30:02.606Z,95.08
2022-10-11T00:30:33.405Z,95.49
2022-10-11T00:31:04.551Z,95.70
2022-10-11T00:31:36.042Z,95.59
2022-10-11T00:32:06.861Z,95.39
2022-10-11T00:32:37.665Z,95.49
2022-10-11T00:33:08.469Z,95.70
2022-10-11T00:33:39.285Z,95.18
2022-10-11T00:34:10.064Z,94.92
2022-10-11T00:34:40.888Z,95.08
2022-10-11T00:35:11.696Z,95.33
2022-10-11T00:35:42.472Z,95.43
2022-10-11T00:36:13.271Z,95.43
2022-10-11T00:36:44.078Z,95.33
2022-10-11T00:37:14.878Z,95.43
2022-10-11T00:37:45.697Z,95.74
2022-10-11T00:38:16.506Z,95.64
2022-10-11T00:38:47.307Z,95.53
2022-10-11T00:39:18.118Z,95.53
2022-10-11T00:39:48.927Z,95.74
2022-10-11T00:40:19.783Z,95.80
2022-10-11T00:40:50.582Z,95.90
2022-10-11T00:41:21.428Z,95.70
2022-10-11T00:41:52.229Z,95.49
2022-10-11T00:42:23.044Z,95.59
2022-10-11T00:42:53.877Z,95.80
2022-10-11T00:43:24.669Z,95.70
2022-10-11T00:43:55.491Z,95.59
2022-10-11T00:44:26.318Z,95.70
2022-10-11T00:44:57.106Z,95.70
2022-10-11T00:45:27.906Z,95.80
2022-10-11T00:45:58.737Z,95.70
2022-10-11T00:46:29.539Z,95.70
2022-10-11T00:47:00.387Z,95.80
2022-10-11T00:47:31.208Z,95.90
2022-10-11T00:48:02.061Z,95.64
2022-10-11T00:48:32.867Z,95.70
2022-10-11T00:49:03.657Z,95.70
2022-10-11T00:49:34.473Z,95.80
2022-10-11T00:50:05.323Z,95.95
2022-10-11T00:50:36.157Z,96.05
2022-10-11T00:51:07.545Z,95.90
2022-10-11T00:51:38.637Z,95.74
2022-10-11T00:52:09.439Z,95.74
2022-10-11T00:52:40.264Z,95.95
2022-10-11T00:53:11.076Z,95.95
2022-10-11T00:53:41.897Z,95.74
2022-10-11T00:54:12.717Z,95.74
2022-10-11T00:54:43.528Z,95.84
2022-10-11T00:55:14.379Z,95.74
2022-10-11T00:55:45.161Z,95.84
2022-10-11T00:56:15.955Z,95.84
2022-10-11T00:56:46.729Z,95.64
2022-10-11T00:57:17.578Z,95.64
2022-10-11T00:57:48.378Z,95.84
2022-10-11T00:58:19.190Z,95.64
2022-10-11T00:58:50.012Z,95.23
2022-10-11T00:59:20.842Z,94.92
2022-10-11T00:59:51.622Z,94.71
2022-10-11T01:00:22.478Z,94.81
2022-10-11T01:00:53.301Z,95.02
2022-10-11T01:01:24.159Z,95.23
2022-10-11T01:01:55.027Z,95.53
2022-10-11T01:02:25.900Z,95.64
2022-10-11T01:02:56.711Z,95.74
2022-10-11T01:03:27.531Z,95.84
2022-10-11T01:03:58.342Z,95.95
2022-10-11T01:04:29.170Z,95.95
2022-10-11T01:05:25.102Z,95.74
2022-10-11T01:05:32.691Z,95.84
2022-10-11T01:06:04.029Z,95.95
2022-10-11T01:06:35.021Z,96.05
2022-10-11T01:07:05.834Z,95.95
2022-10-11T01:07:36.637Z,95.43
2022-10-11T01:08:07.481Z,94.81
2022-10-11T05:20:04.967Z,99.34
2022-10-11T05:20:35.819Z,99.40
2022-10-11T05:21:06.600Z,99.19
2022-10-11T05:21:37.385Z,99.19
2022-10-11T05:22:08.133Z,99.19
2022-10-11T05:22:38.911Z,99.19
2022-10-11T05:23:09.692Z,99.19
2022-10-11T05:23:40.442Z,99.09
2022-10-11T05:24:11.182Z,99.09
2022-10-11T05:24:41.932Z,98.88
2022-10-11T05:25:12.677Z,98.68
2022-10-11T05:25:43.422Z,98.57
2022-10-11T05:26:14.194Z,98.57
2022-10-11T05:26:44.923Z,98.47
2022-10-11T05:27:15.663Z,98.47
2022-10-11T05:27:46.446Z,98.27
2022-10-11T05:28:17.220Z,98.16
2022-10-11T05:28:48.061Z,98.16
2022-10-11T05:29:18.865Z,98.06
2022-10-11T05:29:49.602Z,98.06
2022-10-11T05:30:20.655Z,97.96
2022-10-11T05:30:51.685Z,97.85
2022-10-11T05:31:22.617Z,97.33
2022-10-11T05:31:53.483Z,96.72
2022-10-11T05:32:27.701Z,96.30
2022-10-11T05:32:55.793Z,96.20
2022-10-11T05:33:26.608Z,96.30
2022-10-11T05:33:57.386Z,96.41
2022-10-11T05:34:28.154Z,96.30
2022-10-11T05:34:58.926Z,96.30
2022-10-11T05:35:29.685Z,96.51
2022-10-11T05:36:00.455Z,96.41
2022-10-11T05:36:31.235Z,96.09
2022-10-11T05:37:01.995Z,95.89
2022-10-11T05:37:32.782Z,95.99
2022-10-11T05:38:03.617Z,96.09
2022-10-11T05:38:34.360Z,96.09
2022-10-11T05:39:05.140Z,96.30
2022-10-11T05:39:35.896Z,96.30
2022-10-11T05:40:06.662Z,96.30
2022-10-11T05:40:37.427Z,96.24
2022-10-11T05:41:08.235Z,96.30
2022-10-11T05:41:39.035Z,96.41
2022-10-11T05:42:10.194Z,96.30
2022-10-11T05:42:41.063Z,96.30
2022-10-11T05:43:11.830Z,96.30
2022-10-11T05:43:42.584Z,96.41
2022-10-11T05:44:13.359Z,96.51
2022-10-11T05:44:44.136Z,96.61
2022-10-11T05:45:14.916Z,96.82
2022-10-11T05:45:45.690Z,97.02
2022-10-11T05:46:16.455Z,97.13
2022-10-11T05:46:47.210Z,97.23
2022-10-11T05:47:17.986Z,97.33
2022-10-11T05:47:48.755Z,97.54
2022-10-11T05:48:19.541Z,97.54
2022-10-11T05:48:50.360Z,97.33
2022-10-11T05:49:21.131Z,97.33
2022-10-11T05:49:51.915Z,97.33
2022-10-11T05:50:24.433Z,97.44
2022-10-11T05:50:55.374Z,97.33
2022-10-11T05:51:26.127Z,97.33
2022-10-11T05:51:56.919Z,97.23
2022-10-11T05:52:27.688Z,97.23
2022-10-11T05:52:58.491Z,97.33
2022-10-11T05:53:29.299Z,97.54
2022-10-11T05:54:00.092Z,97.75
2022-10-11T05:54:30.845Z,97.75
2022-10-11T05:55:01.587Z,97.85
2022-10-11T05:55:32.385Z,97.85
2022-10-11T05:56:03.535Z,97.64
2022-10-11T05:56:34.705Z,97.44
2022-10-11T05:57:05.483Z,97.23
2022-10-11T05:57:36.325Z,96.92
2022-10-11T05:58:07.111Z,96.72
2022-10-11T05:58:37.896Z,96.72
2022-10-11T05:59:08.692Z,96.30
2022-10-11T05:59:39.488Z,95.78
2022-10-11T06:00:10.280Z,95.27
2022-10-11T06:00:41.089Z,94.75
2022-10-11T06:01:11.896Z,94.54
2022-10-11T06:01:42.852Z,94.75
2022-10-11T06:02:13.909Z,95.37
2022-10-11T06:02:44.702Z,95.57
2022-10-11T06:03:15.466Z,95.68
2022-10-11T06:03:46.245Z,96.09
2022-10-11T06:04:17.011Z,96.41
2022-10-11T06:04:47.792Z,96.72
2022-10-11T06:05:18.557Z,96.82
2022-10-11T06:05:53.186Z,97.02
2022-10-11T06:06:21.919Z,97.02
2022-10-11T06:06:52.766Z,96.72
2022-10-11T06:07:23.650Z,95.89
2022-10-11T06:07:54.470Z,95.57
2022-10-11T06:08:25.254Z,95.27
2022-10-11T06:08:56.031Z,94.96
2022-10-11T06:09:26.803Z,94.54
2022-10-11T06:09:57.622Z,93.82
2022-10-11T06:10:28.486Z,93.62
2022-10-11T06:10:59.391Z,93.87
2022-10-11T06:11:30.182Z,94.28
2022-10-11T06:12:01.012Z,94.48
2022-10-11T06:12:31.794Z,94.59
2022-10-11T06:13:02.586Z,95.10
2022-10-11T06:13:33.420Z,95.00
2022-10-11T06:14:04.250Z,95.21
2022-10-11T06:14:35.039Z,95.31
2022-10-11T06:15:05.873Z,95.52
2022-10-11T06:15:36.702Z,95.83
2022-10-11T06:16:08.004Z,96.24
2022-10-11T06:16:39.141Z,96.24
2022-10-11T06:17:10.088Z,95.94
2022-10-11T06:17:40.941Z,95.83
2022-10-11T06:18:11.758Z,95.52
2022-10-11T06:18:42.552Z,95.31
2022-10-11T06:19:13.380Z,95.21
2022-10-11T06:19:44.185Z,95.42
2022-10-11T06:20:15.013Z,95.52
2022-10-11T06:20:45.854Z,95.62
2022-10-11T06:21:16.655Z,96.03
2022-10-11T06:21:47.463Z,96.34
2022-10-11T06:22:18.255Z,96.66
2022-10-11T06:22:49.105Z,96.86
2022-10-11T06:23:19.935Z,96.86
2022-10-11T06:23:50.764Z,96.97
2022-10-11T06:24:21.565Z,96.92
2022-10-11T06:24:52.415Z,96.92
2022-10-11T06:25:23.235Z,97.02
2022-10-11T06:25:54.165Z,97.13
2022-10-11T06:26:25.004Z,97.13
2022-10-11T06:26:55.856Z,97.23
2022-10-11T06:27:26.665Z,97.23
2022-10-11T06:27:57.504Z,97.33
2022-10-11T06:28:28.372Z,97.33
2022-10-11T06:28:59.313Z,97.44
2022-10-11T06:29:30.118Z,97.64
2022-10-11T06:30:00.946Z,97.64
2022-10-11T06:30:31.815Z,97.71
2022-10-11T06:31:02.655Z,97.71
2022-10-11T06:31:33.512Z,97.81
2022-10-11T06:32:04.373Z,97.81
2022-10-11T06:32:35.196Z,97.91
2022-10-11T06:33:05.995Z,98.01
2022-10-11T06:33:36.795Z,98.22
2022-10-11T06:34:07.617Z,98.32
2022-10-11T06:34:38.476Z,98.32
2022-10-11T06:35:09.334Z,98.32
2022-10-11T06:35:40.188Z,98.43
2022-10-11T06:36:11.086Z,98.43
2022-10-11T06:36:41.920Z,98.53
2022-10-11T06:37:12.778Z,98.53
2022-10-11T06:37:43.619Z,98.53
2022-10-11T06:38:14.469Z,98.58
2022-10-11T06:38:45.599Z,98.63
2022-10-11T06:39:16.467Z,98.38
2022-10-11T06:39:47.278Z,98.38
2022-10-11T06:40:18.087Z,98.38
2022-10-11T06:40:48.878Z,98.28
2022-10-11T06:41:19.693Z,98.18
2022-10-11T06:41:50.511Z,98.18
2022-10-11T06:42:21.321Z,98.18
2022-10-11T06:42:52.137Z,98.18
2022-10-11T06:43:22.949Z,98.07
2022-10-11T06:43:53.728Z,97.97
2022-10-11T06:44:24.541Z,97.97
2022-10-11T06:44:55.292Z,97.76
2022-10-11T06:45:26.048Z,97.66
2022-10-11T06:45:56.810Z,97.55
2022-10-11T06:46:27.608Z,97.51
2022-10-11T06:46:58.367Z,97.51
2022-10-11T06:47:29.168Z,97.51
2022-10-11T06:48:00.249Z,97.72
2022-10-11T06:48:31.070Z,97.61
2022-10-11T06:49:01.866Z,97.61
2022-10-11T06:49:32.654Z,97.82
2022-10-11T06:50:03.426Z,97.82
2022-10-11T06:50:58.073Z,97.98
2022-10-11T06:51:06.821Z,98.19
2022-10-11T06:51:37.640Z,98.29
2022-10-11T06:52:08.419Z,98.50
2022-10-11T06:52:39.239Z,98.60
2022-10-11T06:53:10.046Z,98.60
2022-10-11T06:53:40.837Z,98.70
2022-10-11T06:54:11.648Z,98.80
2022-10-11T06:54:44.919Z,98.76
2022-10-11T06:55:13.077Z,98.76
2022-10-11T06:55:43.900Z,98.35
2022-10-11T06:56:14.751Z,98.03
2022-10-11T06:56:45.592Z,97.83
2022-10-11T06:57:16.419Z,97.94
2022-10-11T06:57:47.423Z,97.94
2022-10-11T06:58:18.265Z,97.83
2022-10-11T06:58:49.043Z,97.42
2022-10-11T06:59:19.848Z,97.31
2022-10-11T06:59:50.720Z,97.01
2022-10-11T07:00:21.569Z,96.80
2022-10-11T07:00:52.448Z,96.70
2022-10-11T07:01:23.363Z,96.59
2022-10-11T07:01:54.187Z,96.28
2022-10-11T07:02:25.088Z,96.34
2022-10-11T07:02:55.945Z,96.55
2022-10-11T07:03:26.713Z,96.75
2022-10-11T07:03:57.451Z,96.86
2022-10-11T07:04:28.224Z,97.06
2022-10-11T07:04:58.971Z,96.75
2022-10-11T07:05:29.711Z,96.55
2022-10-11T07:06:02.666Z,96.45
2022-10-11T07:06:30.631Z,96.66
2022-10-11T07:07:01.380Z,96.86
2022-10-11T07:07:32.118Z,96.96
2022-10-11T07:08:02.862Z,96.96
2022-10-11T07:08:33.600Z,96.96
2022-10-11T07:10:03.908Z,97.13
2022-10-11T07:10:34.656Z,97.13
2022-10-11T07:11:05.396Z,97.13
2022-10-11T07:11:36.155Z,97.02
2022-10-11T07:12:06.919Z,96.92
2022-10-11T07:12:37.650Z,96.67
2022-10-11T07:13:08.390Z,96.67
2022-10-11T07:13:39.130Z,96.56
2022-10-11T07:14:09.868Z,96.46
2022-10-11T07:14:40.612Z,96.46
2022-10-11T07:15:11.350Z,96.42
2022-10-11T07:15:42.090Z,96.11
2022-10-11T07:16:12.838Z,96.31
2022-10-11T07:16:43.601Z,96.52
2022-10-11T07:17:14.339Z,96.68
2022-10-11T07:17:45.089Z,96.89
2022-10-11T07:18:15.843Z,96.27
2022-10-11T07:18:46.600Z,96.06
2022-10-11T07:19:17.790Z,95.86
2022-10-11T07:19:48.724Z,96.02
2022-10-11T07:20:19.651Z,95.92
2022-10-11T07:20:50.467Z,95.40
2022-10-11T07:21:21.385Z,94.78
2022-10-11T07:21:52.619Z,94.58
2022-10-11T07:22:23.847Z,95.36
2022-10-11T07:22:54.671Z,95.46
2022-10-11T07:23:25.446Z,96.39
2022-10-11T07:23:56.285Z,96.69
2022-10-11T07:24:27.063Z,95.93
2022-10-11T07:24:57.845Z,94.08
2022-10-11T07:25:28.611Z,94.08
2022-10-11T07:25:59.403Z,93.46
2022-10-11T07:26:36.662Z,93.67
2022-10-11T07:27:02.785Z,94.80
2022-10-11T07:27:33.585Z,95.27
2022-10-11T07:28:04.375Z,94.34
2022-10-11T07:28:35.266Z,92.91
2022-10-11T07:29:06.182Z,93.21
2022-10-11T07:29:36.985Z,94.04
2022-10-11T07:30:07.778Z,94.71
2022-10-11T07:30:38.568Z,94.30
2022-10-11T07:31:09.408Z,93.99
2022-10-11T07:31:40.247Z,93.27
2022-10-11T07:32:11.045Z,93.13
2022-10-11T07:32:41.876Z,92.93
2022-10-11T07:33:12.665Z,92.51
2022-10-11T07:33:43.465Z,92.72
2022-10-11T07:34:14.230Z,93.64
2022-10-11T07:34:44.997Z,94.01
2022-10-11T07:35:15.772Z,92.98
2022-10-11T07:35:48.543Z,92.88
2022-10-11T07:36:19.479Z,93.19
2022-10-11T07:36:50.254Z,92.94
2022-10-11T07:37:21.021Z,90.69
2022-10-11T07:37:51.798Z,89.97
2022-10-11T07:38:22.580Z,90.58
2022-10-11T07:38:53.349Z,92.02
2022-10-11T07:39:24.116Z,91.87
2022-10-11T07:39:54.874Z,91.67
2022-10-11T07:40:25.645Z,88.08
2022-10-11T07:40:56.471Z,89.00
2022-10-11T07:41:27.270Z,91.16
2022-10-11T07:41:58.055Z,89.42
2022-10-11T07:42:28.863Z,87.02
2022-10-11T07:43:00.445Z,89.27
2022-10-11T07:43:31.332Z,91.11
2022-10-11T07:44:02.135Z,88.65
2022-10-11T07:44:32.907Z,88.04
2022-10-11T07:45:03.697Z,89.23
2022-10-11T07:45:34.511Z,89.84
2022-10-11T07:46:05.849Z,89.74
2022-10-11T07:46:36.869Z,87.70
2022-10-11T07:47:11.058Z,89.64
2022-10-11T07:47:39.184Z,88.71
2022-10-11T07:48:11.190Z,86.57
2022-10-11T07:48:41.982Z,86.88
2022-10-11T07:49:12.805Z,87.79
2022-10-11T07:49:43.607Z,88.41
2022-10-11T07:50:14.389Z,87.53
2022-10-11T07:50:45.234Z,87.12
2022-10-11T07:51:16.070Z,86.40
2022-10-11T07:51:46.912Z,88.65
2022-10-11T07:52:17.897Z,88.76
2022-10-11T07:52:48.825Z,89.98
2022-10-11T07:53:19.672Z,90.50
2022-10-11T07:53:50.461Z,90.60
2022-10-11T07:54:21.268Z,90.91
2022-10-11T07:54:52.101Z,90.91
2022-10-11T07:55:22.880Z,90.50
2022-10-11T07:55:53.696Z,89.78
2022-10-11T07:56:33.785Z,88.62
2022-10-11T07:57:04.906Z,89.03
2022-10-11T08:00:46.823Z,89.76
2022-10-11T08:01:17.686Z,89.97
2022-10-11T08:01:48.611Z,89.65
2022-10-11T08:02:19.484Z,89.76
2022-10-11T08:02:50.270Z,90.53
2022-10-11T08:03:21.062Z,90.84
2022-10-11T08:03:51.812Z,89.51
2022-10-11T08:04:22.647Z,88.59
2022-10-11T08:04:53.429Z,88.45
2022-10-11T08:05:24.219Z,89.17
2022-10-11T08:05:54.970Z,89.06
2022-10-11T08:06:25.768Z,89.67
2022-10-11T08:06:56.570Z,89.67
2022-10-11T08:07:27.352Z,89.47
2022-10-11T08:07:58.130Z,88.96
2022-10-11T08:08:28.959Z,87.23
2022-10-11T08:08:59.760Z,85.18
2022-10-11T08:09:30.559Z,85.89
2022-10-11T08:10:01.336Z,87.79
2022-10-11T08:10:32.135Z,88.20
2022-10-11T08:11:02.978Z,88.00
2022-10-11T08:11:33.821Z,84.42
2022-10-11T08:12:04.612Z,83.40
2022-10-11T08:12:35.380Z,85.96
2022-10-11T08:13:06.147Z,86.88
2022-10-11T08:13:36.918Z,87.18
2022-10-11T08:14:10.190Z,86.47
2022-10-11T08:14:37.981Z,85.45
2022-10-11T08:15:08.910Z,84.83
2022-10-11T08:15:39.947Z,85.96
2022-10-11T08:16:10.757Z,85.71
2022-10-11T08:16:41.623Z,83.26
2022-10-11T08:17:12.414Z,83.20
2022-10-11T08:17:43.195Z,83.87
2022-10-11T08:18:14.021Z,84.59
2022-10-11T08:18:44.803Z,85.10
2022-10-11T08:19:15.667Z,85.35
2022-10-11T08:19:46.458Z,81.77
2022-10-11T08:20:17.272Z,82.53
2022-10-11T08:20:48.082Z,82.22
2022-10-11T08:21:18.912Z,84.36
2022-10-11T08:21:49.872Z,86.91
2022-10-11T08:22:20.738Z,86.61
2022-10-11T08:22:51.554Z,87.53
2022-10-11T08:23:22.430Z,87.02
2022-10-11T08:23:53.379Z,87.02
2022-10-11T08:24:24.165Z,85.69
2022-10-11T08:24:54.985Z,86.41
2022-10-11T08:25:25.884Z,86.06
2022-10-11T08:25:56.691Z,87.08
2022-10-11T08:26:27.489Z,86.26
2022-10-11T08:26:58.282Z,86.06
2022-10-11T08:27:29.054Z,82.18
2022-10-11T08:27:59.844Z,84.01
2022-10-11T08:28:30.695Z,84.22
2022-10-11T08:29:01.660Z,85.24
2022-10-11T08:29:32.576Z,86.67
2022-10-11T08:30:03.457Z,85.65
2022-10-11T08:30:34.381Z,83.30
2022-10-11T08:31:05.218Z,83.20
2022-10-11T08:31:36.053Z,85.14
2022-10-11T08:32:08.058Z,84.12
2022-10-11T08:32:40.071Z,83.40
2022-10-11T08:33:11.210Z,83.61
2022-10-11T08:33:42.297Z,84.69
2022-10-11T08:34:13.198Z,82.96
2022-10-11T08:34:44.105Z,83.16
2022-10-11T08:35:14.985Z,85.10
2022-10-11T08:35:45.902Z,83.16
2022-10-11T08:36:16.757Z,82.96
2022-10-11T08:36:47.625Z,82.55
2022-10-11T08:37:18.426Z,84.49
2022-10-11T08:37:49.339Z,82.45
2022-10-11T08:38:20.237Z,82.55
2022-10-11T08:38:52.139Z,83.78
2022-10-11T08:39:23.091Z,85.37
2022-10-11T08:39:55.406Z,85.27
2022-10-11T08:40:26.225Z,87.61
2022-10-11T08:40:58.003Z,87.41
2022-10-11T08:41:28.821Z,86.18
2022-10-11T08:41:59.721Z,84.96
2022-10-11T08:42:31.637Z,85.13
2022-10-11T08:43:02.558Z,84.11
2022-10-11T08:43:33.368Z,85.63
2022-10-11T08:44:04.284Z,85.33
2022-10-11T08:44:58.352Z,84.72
2022-10-11T08:45:12.153Z,85.02
2022-10-11T08:45:40.177Z,84.61
2022-10-11T08:46:11.072Z,86.00
2022-10-11T08:46:41.972Z,85.39
2022-10-11T08:47:12.806Z,86.00
2022-10-11T08:47:43.813Z,86.10
2022-10-11T08:48:14.900Z,84.67
2022-10-11T08:48:45.738Z,84.78
2022-10-11T08:49:16.578Z,83.92
2022-10-11T08:49:47.430Z,82.80
2022-10-11T08:50:18.322Z,83.72
2022-10-11T08:50:49.174Z,84.53
2022-10-11T08:51:19.952Z,85.25
2022-10-11T08:51:50.729Z,84.64
2022-10-11T08:52:21.574Z,85.75
2022-10-11T08:52:52.425Z,79.64
2022-10-11T08:53:23.264Z,80.46
2022-10-11T08:53:54.058Z,82.97
2022-10-11T08:54:24.851Z,83.48
2022-10-11T08:54:55.717Z,84.09
2022-10-11T08:55:26.510Z,83.89
2022-10-11T08:55:57.283Z,82.66
2022-10-11T08:56:28.107Z,78.80
2022-10-11T08:56:59.018Z,77.37
2022-10-11T08:57:29.791Z,81.24
2022-10-11T08:58:00.571Z,82.62
2022-10-11T08:58:31.390Z,82.21
2022-10-11T08:59:02.144Z,81.71
2022-10-11T08:59:32.921Z,81.51
2022-10-11T09:00:03.715Z,80.69
2022-10-11T09:00:34.492Z,80.24
2022-10-11T09:01:05.319Z,81.46
2022-10-11T09:01:36.343Z,81.37
2022-10-11T09:02:07.175Z,80.35
2022-10-11T09:03:03.157Z,80.96
2022-10-11T09:03:10.597Z,76.18
2022-10-11T09:03:41.407Z,82.28
2022-10-11T09:04:12.204Z,82.14
2022-10-11T09:04:43.028Z,82.75
2022-10-11T09:05:13.886Z,80.82
2022-10-11T09:05:44.656Z,77.16
2022-10-11T09:06:15.488Z,75.73
2022-10-11T09:06:46.244Z,76.75
2022-10-11T09:07:17.064Z,75.94
2022-10-11T09:07:47.884Z,74.41
2022-10-11T09:08:18.664Z,75.63
2022-10-11T09:08:49.429Z,77.77
2022-10-11T09:09:20.205Z,78.28
2022-10-11T09:09:51.024Z,76.86
2022-10-11T09:10:21.845Z,76.75
2022-10-11T09:10:52.779Z,81.02
2022-10-11T09:11:23.633Z,82.54
2022-10-11T09:11:54.419Z,77.43
2022-10-11T09:12:28.258Z,78.95
2022-10-11T09:12:57.895Z,78.64
2022-10-11T09:13:28.679Z,77.80
2022-10-11T09:13:59.513Z,75.76
2022-10-11T09:14:30.337Z,75.36
2022-10-11T09:15:01.171Z,75.97
2022-10-11T09:15:31.974Z,74.44
2022-10-11T09:16:03.193Z,78.30
2022-10-11T09:16:34.253Z,78.17
2022-10-11T09:17:05.116Z,76.03
2022-10-11T09:17:35.966Z,78.57
2022-10-11T09:18:06.747Z,77.72
2022-10-11T09:18:37.540Z,76.10
2022-10-11T09:19:08.342Z,76.61
2022-10-11T09:19:39.147Z,76.51
2022-10-11T09:20:09.917Z,76.17
2022-10-11T09:20:40.685Z,77.89
2022-10-11T09:21:11.488Z,75.46
2022-10-11T09:21:42.276Z,73.60
2022-10-11T09:22:13.068Z,74.00
2022-10-11T09:22:43.877Z,74.81
2022-10-11T09:23:14.668Z,74.41
2022-10-11T09:23:45.452Z,74.07
2022-10-11T09:24:16.240Z,74.68
2022-10-11T09:24:47.038Z,75.18
2022-10-11T09:25:17.807Z,76.36
2022-10-11T09:25:48.599Z,74.54
2022-10-11T09:26:19.408Z,75.85
2022-10-11T09:26:50.250Z,71.70
2022-10-11T09:27:33.036Z,73.09
2022-10-11T09:28:09.040Z,73.09
2022-10-11T09:28:26.404Z,73.69
2022-10-11T09:29:00.960Z,72.68
2022-10-11T09:29:29.209Z,70.05
2022-10-11T09:30:00.008Z,70.12
2022-10-11T09:30:32.649Z,70.83
2022-10-11T09:31:03.445Z,68.50
2022-10-11T09:31:34.253Z,72.44
2022-10-11T09:32:05.045Z,72.85
2022-10-11T09:32:35.833Z,70.59
2022-10-11T09:33:06.643Z,70.18
2022-10-11T09:33:37.441Z,68.47
2022-10-11T09:34:08.251Z,71.09
2022-10-11T09:34:39.019Z,68.26
2022-10-11T09:35:09.845Z,66.04
2022-10-11T09:35:40.699Z,66.38
2022-10-11T09:36:11.542Z,68.80
2022-10-11T09:36:42.336Z,73.46
2022-10-11T09:37:13.144Z,71.40
2022-10-11T09:37:43.946Z,72.21
2022-10-11T09:38:14.749Z,73.22
2022-10-11T09:38:45.549Z,72.92
2022-10-11T09:39:16.333Z,69.48
2022-10-11T09:39:47.135Z,66.64
2022-10-11T09:40:17.952Z,68.26
2022-10-11T09:40:48.740Z,67.35
2022-10-11T09:41:19.554Z,66.75
2022-10-11T09:41:50.342Z,66.75
2022-10-11T09:42:21.172Z,67.46
2022-10-11T09:42:52.292Z,68.67
2022-10-11T09:43:23.096Z,69.78
2022-10-11T09:43:53.948Z,69.18
2022-10-11T09:44:24.740Z,68.77
2022-10-11T09:44:55.560Z,67.96
2022-10-11T09:45:26.308Z,70.89
2022-10-11T09:45:57.084Z,68.33
2022-10-11T09:46:27.888Z,68.74
2022-10-11T09:46:58.665Z,66.85
2022-10-11T09:47:29.466Z,66.75
2022-10-11T09:48:00.244Z,69.78
2022-10-11T09:48:31.023Z,71.70
2022-10-11T09:49:01.796Z,71.47
2022-10-11T09:49:32.673Z,68.84
2022-10-11T09:50:03.477Z,69.65
2022-10-11T09:50:34.324Z,69.45
2022-10-11T09:51:05.095Z,68.63
2022-10-11T09:51:35.928Z,68.40
2022-10-11T09:52:06.764Z,64.67
2022-10-11T09:52:37.564Z,66.28
2022-10-11T09:53:08.338Z,67.29
2022-10-11T09:53:39.178Z,64.84
2022-10-11T09:54:09.978Z,68.27
2022-10-11T09:54:40.796Z,66.65
2022-10-11T09:55:12.408Z,67.63
2022-10-11T09:55:42.153Z,68.74
2022-10-11T09:56:12.971Z,66.42
2022-10-11T09:56:43.779Z,64.30
2022-10-11T09:57:14.581Z,65.11
2022-10-11T09:57:45.421Z,67.02
2022-10-11T09:58:16.188Z,64.64
2022-10-11T09:58:47.017Z,66.15
2022-10-11T09:59:17.813Z,64.97
2022-10-11T09:59:48.728Z,63.55
2022-10-11T10:00:19.533Z,64.49
2022-10-11T10:00:50.317Z,66.35
2022-10-11T10:01:21.121Z,69.68
2022-10-11T10:01:51.930Z,68.10
2022-10-11T10:02:22.717Z,65.59
2022-10-11T10:02:53.544Z,66.33
2022-10-11T10:03:24.332Z,66.16
2022-10-11T10:03:55.109Z,67.82
2022-10-11T10:04:25.930Z,68.93
2022-10-11T10:04:56.782Z,69.54
2022-10-11T10:05:27.584Z,69.74
2022-10-11T10:05:58.396Z,69.00
2022-10-11T10:06:29.361Z,70.89
2022-10-11T10:07:00.172Z,67.35
2022-10-11T10:07:30.993Z,67.05
2022-10-11T10:08:04.875Z,66.81
2022-10-11T10:08:33.006Z,67.82
2022-10-11T10:09:03.827Z,68.90
2022-10-11T10:09:34.594Z,68.50
2022-10-11T10:10:05.405Z,67.96
2022-10-11T10:10:36.152Z,68.84
2022-10-11T10:11:06.950Z,66.82
2022-10-11T10:11:37.709Z,68.71
2022-10-11T10:12:08.498Z,68.30
2022-10-11T10:12:39.311Z,64.87
2022-10-11T10:13:10.096Z,63.15
2022-10-11T10:13:40.881Z,63.28
2022-10-11T10:14:11.680Z,64.59
2022-10-11T10:14:42.538Z,67.39
2022-10-11T10:15:13.383Z,68.30
2022-10-11T10:15:44.166Z,67.76
2022-10-11T10:16:14.968Z,67.06
2022-10-11T10:16:45.772Z,65.71
2022-10-11T10:17:16.545Z,64.61
2022-10-11T10:17:47.343Z,65.58
2022-10-11T10:18:18.178Z,67.10
2022-10-11T10:18:48.941Z,67.87
2022-10-11T10:19:19.748Z,68.48
2022-10-11T10:19:50.590Z,60.31
2022-10-11T10:20:21.435Z,62.43
2022-10-11T10:20:52.221Z,62.83
2022-10-11T10:21:23.123Z,64.92
2022-10-11T10:21:53.887Z,63.90
2022-10-11T10:22:24.673Z,65.69
2022-10-11T10:22:55.485Z,61.56
2022-10-11T10:23:26.265Z,67.20
2022-10-11T10:23:57.050Z,60.96
2022-10-11T10:24:27.821Z,61.66
2022-10-11T10:24:58.688Z,64.05
2022-10-11T10:25:29.454Z,64.35
2022-10-11T10:26:00.216Z,63.14
2022-10-11T10:26:31.015Z,63.01
2022-10-11T10:27:01.791Z,62.61
2022-10-11T10:27:33.466Z,62.71
2022-10-11T10:28:04.277Z,59.96
2022-10-11T10:28:35.093Z,64.26
2022-10-11T10:29:05.894Z,62.35
2022-10-11T10:29:36.662Z,63.22
2022-10-11T10:30:07.435Z,60.91
2022-10-11T10:30:38.215Z,60.68
2022-10-11T10:31:09.038Z,60.88
2022-10-11T10:32:01.926Z,60.65
2022-10-11T10:32:15.011Z,58.77
2022-10-11T10:32:48.227Z,56.59
2022-10-11T10:33:15.750Z,59.13
2022-10-11T10:33:46.538Z,58.25
2022-10-11T10:34:17.343Z,59.19
2022-10-11T10:34:48.123Z,60.19
2022-10-11T10:35:18.959Z,60.05
2022-10-11T10:35:49.778Z,59.97
2022-10-11T10:36:20.582Z,62.32
2022-10-11T10:36:51.413Z,62.52
2022-10-11T10:37:22.202Z,63.16
2022-10-11T10:37:52.991Z,61.24
2022-10-11T10:38:26.593Z,64.81
2022-10-11T10:38:54.894Z,66.02
2022-10-11T10:39:25.748Z,64.70
2022-10-11T10:39:56.530Z,63.82
2022-10-11T10:40:27.319Z,63.62
2022-10-11T10:40:58.183Z,64.87
2022-10-11T10:41:28.960Z,66.55
2022-10-11T10:41:59.732Z,67.02
2022-10-11T10:42:30.645Z,64.90
2022-10-11T10:43:01.451Z,64.40
2022-10-11T10:43:32.241Z,61.98
2022-10-11T10:44:03.050Z,62.01
2022-10-11T10:44:33.827Z,63.82
2022-10-11T10:45:07.309Z,66.86
2022-10-11T10:45:37.229Z,68.47
2022-10-11T10:46:08.434Z,68.20
2022-10-11T10:46:39.409Z,67.29
2022-10-11T10:47:10.224Z,65.17
2022-10-11T10:47:41.031Z,67.69
2022-10-11T10:48:11.812Z,66.72
2022-10-11T10:49:23.213Z,67.93
2022-10-11T10:49:54.159Z,66.04
2022-10-11T10:50:20.489Z,68.47
2022-10-11T10:50:51.260Z,67.96
2022-10-11T10:51:22.044Z,66.35
2022-10-11T10:51:52.841Z,67.29
2022-10-11T10:52:23.668Z,68.70
2022-10-11T10:52:54.493Z,67.82
2022-10-11T10:53:25.275Z,67.72
2022-10-11T10:53:56.023Z,69.14